ZAA weather

Public forecast

Using degrees Celsius for public forecast. Weather courtesy of forecast.io.

Closest aviation weather report (METAR) to Alice Arm/Silver City Seaplane Base

Closest report is Stewart Airport, 32.8 nm (60.8 km) NNW. Retrieved 2020/08/13 23:00 UTC (22 minutes ago):

CZST 132300Z 21005KT 170V270 15SM SCT045 OVC055 13/09 A3011 RMK SC4SC4 SLP199

Closest aviation forecast (TAF) to Alice Arm/Silver City Seaplane Base

Closest forecast is Northwest Regional Airport Terrace-Kitimat, 67.6 nm (125.2 km) SSE. Retrieved 2020/08/13 19:39 UTC (4 hours ago):

TAF CYXT 131838Z 1319/1407 VRB03KT P6SM FEW020 FEW040 BKN060 BECMG 1319/1321 18010KT BECMG 1321/1323 18012G22KT FM132300 18012G22KT P6SM SCT020 BKN040 TEMPO 1323/1404 P6SM -SHRA FM140400 18010KT P6SM -RA SCT015 OVC030 TEMPO 1404/1407 4SM -SHRA BR SCT008 OVC015 RMK NXT FCST BY 140100Z